createdAt,value
2018-09-11T00:00:07.791Z,92.70
2018-09-11T00:02:36.019Z,92.70
2018-09-11T00:05:04.281Z,92.60
2018-09-11T00:07:33.524Z,92.60
2018-09-11T00:10:01.751Z,92.60
2018-09-11T00:12:30.039Z,92.60
2018-09-11T00:14:58.283Z,92.50
2018-09-11T00:17:26.487Z,92.50
2018-09-11T00:19:54.709Z,92.60
2018-09-11T00:22:22.939Z,92.70
2018-09-11T00:24:51.188Z,92.70
2018-09-11T00:27:19.438Z,92.70
2018-09-11T00:29:47.672Z,92.70
2018-09-11T00:32:15.903Z,92.70
2018-09-11T00:34:44.195Z,92.70
2018-09-11T00:37:12.517Z,92.70
2018-09-11T00:39:40.718Z,92.80
2018-09-11T00:42:08.944Z,92.80
2018-09-11T00:44:37.191Z,92.90
2018-09-11T00:47:05.443Z,93.00
2018-09-11T00:49:33.660Z,93.10
2018-09-11T00:52:01.947Z,93.10
2018-09-11T00:54:30.297Z,93.20
2018-09-11T00:56:58.651Z,93.20
2018-09-11T00:59:33.532Z,93.30
2018-09-11T01:02:01.782Z,93.70
2018-09-11T01:04:30.064Z,93.40
2018-09-11T01:06:58.319Z,93.50
2018-09-11T01:09:26.563Z,93.50
2018-09-11T01:11:54.832Z,93.60
2018-09-11T01:14:23.057Z,93.70
2018-09-11T01:16:51.304Z,93.70
2018-09-11T01:19:19.529Z,93.70
2018-09-11T01:21:47.747Z,93.80
2018-09-11T01:24:15.995Z,93.80
2018-09-11T01:26:44.216Z,93.80
2018-09-11T01:29:12.447Z,93.90
2018-09-11T01:31:40.715Z,94.00
2018-09-11T01:34:09.036Z,93.90
2018-09-11T01:36:37.593Z,94.00
2018-09-11T01:39:08.203Z,94.10
2018-09-11T01:41:36.468Z,94.20
2018-09-11T01:44:04.690Z,94.20
2018-09-11T01:46:32.916Z,94.20
2018-09-11T01:49:01.175Z,94.20
2018-09-11T01:51:29.401Z,94.40
2018-09-11T01:53:57.686Z,94.40
2018-09-11T01:56:25.975Z,94.40
2018-09-11T01:58:54.300Z,94.40
2018-09-11T02:01:22.620Z,94.40
2018-09-11T02:03:51.048Z,94.50
2018-09-11T02:06:19.262Z,94.50
2018-09-11T02:08:47.512Z,94.60
2018-09-11T02:11:15.799Z,94.60
2018-09-11T02:13:43.995Z,94.70
2018-09-11T02:16:12.235Z,94.70
2018-09-11T02:18:40.451Z,94.80
2018-09-11T02:21:08.718Z,94.80
2018-09-11T02:23:36.951Z,94.70
2018-09-11T02:26:05.182Z,94.50
2018-09-11T02:28:33.415Z,94.40
2018-09-11T02:31:01.656Z,94.20
2018-09-11T02:33:29.991Z,94.10
2018-09-11T02:35:58.227Z,94.00
2018-09-11T02:38:26.464Z,94.00
2018-09-11T02:40:54.709Z,93.90
2018-09-11T02:43:22.918Z,93.80
2018-09-11T02:45:51.446Z,93.90
2018-09-11T02:48:19.657Z,94.00
2018-09-11T02:50:47.890Z,94.20
2018-09-11T02:53:16.101Z,94.30
2018-09-11T02:55:44.330Z,94.40
2018-09-11T02:58:12.543Z,94.30
2018-09-11T03:00:40.787Z,94.30
2018-09-11T03:03:09.016Z,94.40
2018-09-11T03:05:37.272Z,94.50
2018-09-11T03:08:05.484Z,94.70
2018-09-11T03:10:33.698Z,94.80
2018-09-11T03:13:01.919Z,94.70
2018-09-11T03:15:30.142Z,94.90
2018-09-11T03:17:58.390Z,94.90
2018-09-11T03:20:26.619Z,95.00
2018-09-11T03:22:54.834Z,95.00
2018-09-11T03:25:23.204Z,95.00
2018-09-11T03:27:52.321Z,95.10
2018-09-11T03:30:21.317Z,95.30
2018-09-11T03:32:49.513Z,95.40
2018-09-11T03:35:17.748Z,95.50
2018-09-11T03:37:46.007Z,95.60
2018-09-11T03:40:14.232Z,95.60
2018-09-11T03:42:42.476Z,95.60
2018-09-11T03:45:10.699Z,95.60
2018-09-11T03:47:38.947Z,95.80
2018-09-11T03:50:07.175Z,95.90
2018-09-11T03:52:35.406Z,96.00
2018-09-11T03:55:03.796Z,96.00
2018-09-11T03:57:32.000Z,96.20
2018-09-11T04:00:00.209Z,96.30
2018-09-11T04:02:28.539Z,96.40
2018-09-11T04:04:56.754Z,96.60
2018-09-11T04:07:24.947Z,96.70
2018-09-11T04:09:53.192Z,96.90
2018-09-11T04:12:21.410Z,97.00
2018-09-11T04:14:49.734Z,97.30
2018-09-11T04:17:17.936Z,97.30
2018-09-11T04:19:46.154Z,97.50
2018-09-11T04:22:14.416Z,97.60
2018-09-11T04:24:42.667Z,97.80
2018-09-11T04:27:10.913Z,97.90
2018-09-11T04:29:39.140Z,98.00
2018-09-11T04:32:07.362Z,98.20
2018-09-11T04:34:35.572Z,98.30
2018-09-11T04:37:03.813Z,98.40
2018-09-11T04:39:32.013Z,98.50
2018-09-11T04:42:00.256Z,98.40
2018-09-11T04:44:28.437Z,98.40
2018-09-11T04:46:56.661Z,98.60
2018-09-11T04:49:24.861Z,98.70
2018-09-11T04:51:53.096Z,98.80
2018-09-11T04:54:21.405Z,99.00
2018-09-11T04:56:49.607Z,99.00
2018-09-11T04:59:17.855Z,99.20
2018-09-11T05:01:46.052Z,99.40
2018-09-11T05:04:14.283Z,99.60
2018-09-11T05:06:42.556Z,99.70
2018-09-11T05:09:11.538Z,99.90
2018-09-11T05:11:39.951Z,99.90
2018-09-11T05:14:08.448Z,99.90
2018-09-11T05:16:36.675Z,99.90
2018-09-11T05:19:04.901Z,99.90
2018-09-11T05:21:33.118Z,99.90
2018-09-11T05:24:01.556Z,99.80
2018-09-11T05:26:29.787Z,99.80
2018-09-11T05:28:58.034Z,99.70
2018-09-11T05:31:26.234Z,99.70
2018-09-11T05:33:54.438Z,99.60
2018-09-11T05:36:22.663Z,99.60
2018-09-11T05:38:50.963Z,99.60
2018-09-11T05:41:20.221Z,99.60
2018-09-11T05:43:48.518Z,99.40
2018-09-11T05:46:16.732Z,99.30
2018-09-11T05:48:44.985Z,99.20
2018-09-11T05:51:13.210Z,99.20
2018-09-11T05:53:41.512Z,99.20
2018-09-11T05:56:09.707Z,99.20
2018-09-11T05:58:38.137Z,99.20
2018-09-11T06:01:06.391Z,99.50
2018-09-11T06:03:34.604Z,99.30
2018-09-11T06:06:02.844Z,99.20
2018-09-11T06:08:31.059Z,99.20
2018-09-11T06:10:59.284Z,99.10
2018-09-11T06:13:27.538Z,99.50
2018-09-11T06:15:55.738Z,99.00
2018-09-11T06:18:24.207Z,99.00
2018-09-11T06:20:52.487Z,98.90
2018-09-11T06:23:20.951Z,98.80
2018-09-11T06:25:49.258Z,98.80
2018-09-11T06:28:17.378Z,98.70
2018-09-11T06:30:45.567Z,98.70
2018-09-11T06:33:13.790Z,98.70
2018-09-11T06:35:42.035Z,98.60
2018-09-11T06:38:10.904Z,98.60
2018-09-11T06:40:39.127Z,98.60
2018-09-11T06:43:07.394Z,98.40
2018-09-11T06:45:35.712Z,98.70
2018-09-11T06:48:03.939Z,98.30
2018-09-11T06:50:32.149Z,98.40
2018-09-11T06:53:00.355Z,98.70
2018-09-11T06:55:28.580Z,98.60
2018-09-11T06:57:56.786Z,98.20
2018-09-11T07:00:25.027Z,98.30
2018-09-11T07:02:53.230Z,98.20
2018-09-11T07:05:21.459Z,98.30
2018-09-11T07:07:49.655Z,98.20
2018-09-11T07:10:17.883Z,97.80
2018-09-11T07:12:46.096Z,97.70
2018-09-11T07:15:15.028Z,97.60
2018-09-11T07:17:43.227Z,97.80
2018-09-11T07:20:11.598Z,97.30
2018-09-11T07:22:39.701Z,97.10
2018-09-11T07:25:07.931Z,97.00
2018-09-11T07:27:36.131Z,96.70
2018-09-11T07:30:04.407Z,96.50
2018-09-11T07:32:32.618Z,96.30
2018-09-11T07:35:00.843Z,96.20
2018-09-11T07:37:29.109Z,96.00
2018-09-11T07:39:57.335Z,96.00
2018-09-11T07:42:25.575Z,95.80
2018-09-11T07:44:54.627Z,95.30
2018-09-11T07:47:22.831Z,95.50
2018-09-11T07:49:51.031Z,95.40
2018-09-11T07:52:19.287Z,95.50
2018-09-11T07:54:47.508Z,95.60
2018-09-11T07:57:15.751Z,95.30
2018-09-11T07:59:43.986Z,94.90
2018-09-11T08:02:12.185Z,94.70
2018-09-11T08:04:40.440Z,94.30
2018-09-11T08:07:08.682Z,94.40
2018-09-11T08:09:36.956Z,94.50
2018-09-11T08:12:05.183Z,93.60
2018-09-11T08:14:33.486Z,93.60
2018-09-11T08:17:01.716Z,93.60
2018-09-11T08:19:29.989Z,93.40
2018-09-11T08:21:59.043Z,93.20
2018-09-11T08:24:27.230Z,93.30
2018-09-11T08:26:55.489Z,93.10
2018-09-11T08:29:23.768Z,92.70
2018-09-11T08:31:51.937Z,92.60
2018-09-11T08:34:20.132Z,92.60
2018-09-11T08:36:48.378Z,92.40
2018-09-11T08:39:16.608Z,92.20
2018-09-11T08:41:44.811Z,92.10
2018-09-11T08:44:13.140Z,92.00
2018-09-11T08:46:41.437Z,91.90
2018-09-11T08:49:09.628Z,91.80
2018-09-11T08:51:37.851Z,91.50
2018-09-11T08:54:06.096Z,91.60
2018-09-11T08:56:34.331Z,90.90
2018-09-11T08:59:02.580Z,91.10
2018-09-11T09:01:30.953Z,90.70
2018-09-11T09:03:59.184Z,90.30
2018-09-11T09:06:27.395Z,90.30
2018-09-11T09:08:55.598Z,89.90
2018-09-11T09:11:23.828Z,89.20
2018-09-11T09:13:52.099Z,89.30
2018-09-11T09:16:20.365Z,88.90
2018-09-11T09:18:48.771Z,88.30
2018-09-11T09:21:16.991Z,88.10
2018-09-11T09:23:45.209Z,87.80
2018-09-11T09:26:13.520Z,86.60
2018-09-11T09:28:41.736Z,86.10
2018-09-11T09:31:09.948Z,85.70
2018-09-11T09:33:38.191Z,84.90
2018-09-11T09:36:06.488Z,84.20
2018-09-11T09:38:34.687Z,84.80
2018-09-11T09:41:02.887Z,84.80
2018-09-11T09:43:31.191Z,84.40
2018-09-11T09:45:59.415Z,84.40
2018-09-11T09:48:27.647Z,84.20
2018-09-11T09:50:56.042Z,85.00
2018-09-11T09:53:24.290Z,84.80
2018-09-11T09:55:52.527Z,83.60
2018-09-11T09:58:20.743Z,82.90
2018-09-11T10:00:54.119Z,83.00
2018-09-11T10:03:22.373Z,82.90
2018-09-11T10:05:50.600Z,82.70
2018-09-11T10:08:18.826Z,81.50
2018-09-11T10:10:47.047Z,81.30
2018-09-11T10:13:15.274Z,80.80
2018-09-11T10:15:43.506Z,80.60
2018-09-11T10:18:11.731Z,80.90
2018-09-11T10:20:39.943Z,81.30
2018-09-11T10:23:08.180Z,78.30
2018-09-11T10:25:36.399Z,78.80
2018-09-11T10:28:04.595Z,78.40
2018-09-11T10:30:32.827Z,78.10
2018-09-11T10:33:01.039Z,78.20
2018-09-11T10:35:35.688Z,78.30
2018-09-11T10:38:03.876Z,77.80
2018-09-11T10:40:32.110Z,77.70
2018-09-11T10:43:00.325Z,77.10
2018-09-11T10:45:28.535Z,76.40
2018-09-11T10:47:56.751Z,76.40
2018-09-11T10:50:25.250Z,74.60
2018-09-11T10:52:53.491Z,74.70
2018-09-11T10:55:21.875Z,75.30
2018-09-11T10:57:50.158Z,74.90
2018-09-11T11:00:18.359Z,73.80
2018-09-11T11:02:46.567Z,73.60
2018-09-11T11:05:14.779Z,73.00
2018-09-11T11:07:42.992Z,72.40
2018-09-11T11:10:11.188Z,72.00
2018-09-11T11:12:39.407Z,71.40
2018-09-11T11:15:07.671Z,71.70
2018-09-11T11:17:35.940Z,71.70
2018-09-11T11:20:04.170Z,70.00
2018-09-11T11:22:32.351Z,70.30
2018-09-11T11:25:00.586Z,68.60
2018-09-11T11:27:28.785Z,68.20
2018-09-11T11:29:56.987Z,68.50
2018-09-11T11:32:25.197Z,69.40
2018-09-11T11:34:53.422Z,67.30
2018-09-11T11:37:21.762Z,68.10
2018-09-11T11:39:49.870Z,68.60
2018-09-11T11:42:18.170Z,67.50
2018-09-11T11:44:46.360Z,67.60
2018-09-11T11:47:14.571Z,67.30
2018-09-11T11:49:42.755Z,67.30
2018-09-11T11:52:10.975Z,66.30
2018-09-11T11:54:39.301Z,66.50
2018-09-11T11:57:07.581Z,66.60
2018-09-11T11:59:35.795Z,65.80
2018-09-11T12:02:04.052Z,65.00
2018-09-11T12:04:32.222Z,64.80
2018-09-11T12:07:00.415Z,64.40
2018-09-11T12:09:28.647Z,64.30
2018-09-11T12:11:56.830Z,63.50
2018-09-11T12:14:25.055Z,62.80
2018-09-11T12:16:53.279Z,62.70
2018-09-11T12:19:21.533Z,62.20
2018-09-11T12:21:49.758Z,62.20
2018-09-11T12:24:18.007Z,62.40
2018-09-11T12:26:46.323Z,62.60
2018-09-11T12:29:14.639Z,62.40
2018-09-11T12:31:42.863Z,61.90
2018-09-11T12:34:11.107Z,61.60
2018-09-11T12:36:39.315Z,61.30
2018-09-11T12:39:08.436Z,60.40
2018-09-11T12:41:36.667Z,59.80
2018-09-11T12:44:04.944Z,59.80
2018-09-11T12:46:33.534Z,59.90
2018-09-11T12:49:01.386Z,58.90
2018-09-11T12:51:29.679Z,58.50
2018-09-11T12:53:57.907Z,58.80
2018-09-11T12:56:26.102Z,58.60
2018-09-11T12:58:54.388Z,58.30
2018-09-11T13:01:22.558Z,57.70
2018-09-11T13:03:50.808Z,58.00
2018-09-11T13:06:19.038Z,58.30
2018-09-11T13:08:47.240Z,58.00
2018-09-11T13:11:15.431Z,57.20
2018-09-11T13:13:43.644Z,56.40
2018-09-11T13:16:12.227Z,55.70
2018-09-11T13:18:40.454Z,55.90
2018-09-11T13:27:20.801Z,53.50
2018-09-11T13:29:49.015Z,53.80
2018-09-11T13:32:17.205Z,53.20
2018-09-11T13:34:45.475Z,51.10
2018-09-11T13:37:13.716Z,48.60
2018-09-11T13:39:41.908Z,46.00
2018-09-11T13:42:10.149Z,44.40
2018-09-11T13:44:38.383Z,42.60
2018-09-11T13:47:06.652Z,41.10
2018-09-11T13:49:34.828Z,39.00
2018-09-11T13:52:03.061Z,37.10
2018-09-11T13:54:31.544Z,36.40
2018-09-11T13:56:59.739Z,35.40
2018-09-11T13:59:27.932Z,34.00
2018-09-11T14:01:56.175Z,31.70
2018-09-11T14:04:24.365Z,30.90
2018-09-11T14:06:52.635Z,29.80
2018-09-11T14:09:20.860Z,29.80
2018-09-11T14:11:49.095Z,29.40
2018-09-11T14:14:17.316Z,28.30
2018-09-11T14:16:45.528Z,27.90
2018-09-11T14:19:13.775Z,28.00
2018-09-11T14:21:41.987Z,27.20
2018-09-11T14:24:10.381Z,26.70
2018-09-11T14:26:38.594Z,26.90
2018-09-11T14:29:06.796Z,27.00
2018-09-11T14:31:34.995Z,27.80
2018-09-11T14:34:03.227Z,28.90
2018-09-11T14:36:31.635Z,29.40
2018-09-11T14:38:59.855Z,30.50
2018-09-11T14:41:28.096Z,30.80
2018-09-11T14:43:56.291Z,31.00
2018-09-11T14:46:24.546Z,31.90
2018-09-11T14:48:52.744Z,33.20
2018-09-11T14:51:20.955Z,34.20
2018-09-11T14:53:49.268Z,34.70
2018-09-11T14:56:17.488Z,34.90
2018-09-11T14:58:45.723Z,35.10
2018-09-11T15:01:13.925Z,35.90
2018-09-11T15:03:42.160Z,35.60
2018-09-11T15:06:10.343Z,34.00
2018-09-11T15:08:38.604Z,32.70
2018-09-11T15:11:06.767Z,31.80
2018-09-11T15:13:35.073Z,31.80
2018-09-11T15:16:03.312Z,31.20
2018-09-11T15:18:31.511Z,30.70
2018-09-11T15:20:59.744Z,30.40
2018-09-11T15:23:27.987Z,29.80
2018-09-11T15:25:56.211Z,29.80
2018-09-11T15:28:24.440Z,29.40
2018-09-11T15:30:52.655Z,30.30
2018-09-11T15:33:20.894Z,32.40
2018-09-11T15:35:49.122Z,34.10
2018-09-11T15:38:17.317Z,35.20
2018-09-11T15:40:45.622Z,36.50
2018-09-11T15:43:13.938Z,37.20
2018-09-11T15:45:42.174Z,38.40
2018-09-11T15:48:10.372Z,39.50
2018-09-11T15:50:38.604Z,40.40
2018-09-11T15:53:06.838Z,41.10
2018-09-11T15:55:35.088Z,41.70
2018-09-11T15:58:03.465Z,42.00
2018-09-11T16:00:31.674Z,40.90
2018-09-11T16:02:59.898Z,40.10
2018-09-11T16:05:28.112Z,39.70
2018-09-11T16:07:56.327Z,38.90
2018-09-11T16:10:24.555Z,38.70
2018-09-11T16:12:52.780Z,38.10
2018-09-11T16:15:20.980Z,38.40
2018-09-11T16:17:49.268Z,38.90
2018-09-11T16:20:17.493Z,39.80
2018-09-11T16:22:45.679Z,40.60
2018-09-11T16:25:13.977Z,41.00
2018-09-11T16:27:52.649Z,41.30
2018-09-11T16:30:28.147Z,41.60
2018-09-11T16:32:56.393Z,42.20
2018-09-11T16:35:24.620Z,42.50
2018-09-11T16:37:52.860Z,43.00
2018-09-11T16:40:21.084Z,43.10
2018-09-11T16:42:49.291Z,43.40
2018-09-11T16:45:17.496Z,43.10
2018-09-11T16:47:45.764Z,42.40
2018-09-11T16:50:13.964Z,41.60
2018-09-11T16:52:42.188Z,40.80
2018-09-11T16:55:10.385Z,41.60
2018-09-11T16:57:38.572Z,42.20
2018-09-11T17:00:06.919Z,43.10
2018-09-11T17:02:35.174Z,44.00
2018-09-11T17:05:03.562Z,44.50
2018-09-11T17:07:31.825Z,44.90
2018-09-11T17:10:00.087Z,45.40
2018-09-11T17:12:28.321Z,45.90
2018-09-11T17:14:56.579Z,46.30
2018-09-11T17:17:24.766Z,46.70
2018-09-11T17:19:52.963Z,47.10
2018-09-11T17:22:21.162Z,47.50
2018-09-11T17:24:50.064Z,47.70
2018-09-11T17:27:18.899Z,47.90
2018-09-11T17:29:47.874Z,48.80
2018-09-11T17:32:16.084Z,49.00
2018-09-11T17:34:44.402Z,48.70
2018-09-11T17:37:12.630Z,48.90
2018-09-11T17:39:40.875Z,48.90
2018-09-11T17:42:09.595Z,49.20
2018-09-11T17:44:37.813Z,49.40
2018-09-11T17:47:06.036Z,49.50
2018-09-11T17:49:34.254Z,49.80
2018-09-11T17:52:02.464Z,50.00
2018-09-11T17:54:30.919Z,50.10
2018-09-11T17:56:59.143Z,50.40
2018-09-11T17:59:27.358Z,50.40
2018-09-11T18:01:55.597Z,50.50
2018-09-11T18:04:23.964Z,50.70
2018-09-11T18:06:52.155Z,50.80
2018-09-11T18:09:20.371Z,50.90
2018-09-11T18:11:48.598Z,51.00
2018-09-11T18:14:16.835Z,51.20
2018-09-11T18:16:45.061Z,51.30
2018-09-11T18:19:13.294Z,51.50
2018-09-11T18:21:41.502Z,51.60
2018-09-11T18:24:09.714Z,51.90
2018-09-11T18:26:37.915Z,51.90
2018-09-11T18:29:06.164Z,52.10
2018-09-11T18:31:34.361Z,52.50
2018-09-11T18:34:02.679Z,52.50
2018-09-11T18:36:30.927Z,52.60
2018-09-11T18:38:59.088Z,52.70
2018-09-11T18:41:27.307Z,52.90
2018-09-11T18:43:55.582Z,53.00
2018-09-11T18:46:23.800Z,53.30
2018-09-11T18:48:52.028Z,53.30
2018-09-11T18:51:20.292Z,53.40
2018-09-11T18:53:48.482Z,53.60
2018-09-11T18:56:16.694Z,53.70
2018-09-11T18:58:44.895Z,53.80
2018-09-11T19:01:13.137Z,54.00
2018-09-11T19:03:41.359Z,54.00
2018-09-11T19:06:09.580Z,54.00
2018-09-11T19:08:37.784Z,54.10
2018-09-11T19:11:06.031Z,54.20
2018-09-11T19:13:34.290Z,54.40
2018-09-11T19:16:02.529Z,54.60
2018-09-11T19:18:30.820Z,54.80
2018-09-11T19:20:59.023Z,54.80
2018-09-11T19:23:28.268Z,54.90
2018-09-11T19:25:56.554Z,55.10
2018-09-11T19:28:24.781Z,55.30
2018-09-11T19:30:52.986Z,55.60
2018-09-11T19:33:21.201Z,55.70
2018-09-11T19:35:49.419Z,55.90
2018-09-11T19:38:17.647Z,56.10
2018-09-11T19:40:45.882Z,56.40
2018-09-11T19:43:14.091Z,56.60
2018-09-11T19:45:42.299Z,57.00
2018-09-11T19:48:10.589Z,57.30
2018-09-11T19:50:38.860Z,57.70
2018-09-11T19:53:06.986Z,58.10
2018-09-11T19:55:35.407Z,58.40
2018-09-11T19:58:03.663Z,58.80
2018-09-11T20:00:31.847Z,59.00
2018-09-11T20:03:00.066Z,59.30
2018-09-11T20:05:28.255Z,59.70
2018-09-11T20:07:56.877Z,59.90
2018-09-11T20:10:25.102Z,60.20
2018-09-11T20:12:53.435Z,60.70
2018-09-11T20:15:21.642Z,61.00
2018-09-11T20:17:49.822Z,61.50
2018-09-11T20:20:18.010Z,62.00
2018-09-11T20:22:46.216Z,62.60
2018-09-11T20:25:14.509Z,63.10
2018-09-11T20:27:42.722Z,63.80
2018-09-11T20:30:11.161Z,64.40
2018-09-11T20:32:40.792Z,64.90
2018-09-11T20:35:09.097Z,65.50
2018-09-11T20:37:37.412Z,66.10
2018-09-11T20:40:05.619Z,66.60
2018-09-11T20:42:33.813Z,67.30
2018-09-11T20:45:02.051Z,67.80
2018-09-11T20:47:30.240Z,68.50
2018-09-11T20:49:58.456Z,69.10
2018-09-11T20:52:27.530Z,69.80
2018-09-11T20:54:55.888Z,70.50
2018-09-11T20:57:24.146Z,71.20
2018-09-11T20:59:52.338Z,71.70
2018-09-11T21:02:20.546Z,72.70
2018-09-11T21:04:49.373Z,73.40
2018-09-11T21:07:17.737Z,74.00
2018-09-11T21:09:45.993Z,74.70
2018-09-11T21:12:14.210Z,75.20
2018-09-11T21:14:42.455Z,75.80
2018-09-11T21:17:10.968Z,76.60
2018-09-11T21:19:39.201Z,77.10
2018-09-11T21:22:07.452Z,77.60
2018-09-11T21:24:35.842Z,77.80
2018-09-11T21:27:04.050Z,78.10
2018-09-11T21:29:32.287Z,78.40
2018-09-11T21:32:00.487Z,78.70
2018-09-11T21:34:28.687Z,79.20
2018-09-11T21:36:56.909Z,79.60
2018-09-11T21:39:25.091Z,80.10
2018-09-11T21:41:53.322Z,80.70
2018-09-11T21:44:21.502Z,81.00
2018-09-11T21:46:49.731Z,81.40
2018-09-11T21:49:17.932Z,81.80
2018-09-11T21:51:46.159Z,82.30
2018-09-11T21:54:14.557Z,83.00
2018-09-11T21:56:42.766Z,84.10
2018-09-11T21:59:11.588Z,84.10
2018-09-11T22:01:51.014Z,84.70
2018-09-11T22:04:19.713Z,85.20
2018-09-11T22:06:47.926Z,85.90
2018-09-11T22:09:16.125Z,86.50
2018-09-11T22:11:44.351Z,87.20
2018-09-11T22:14:12.595Z,87.70
2018-09-11T22:16:40.803Z,88.30
2018-09-11T22:19:09.047Z,88.70
2018-09-11T22:21:37.713Z,89.10
2018-09-11T22:24:05.956Z,89.70
2018-09-11T22:26:34.735Z,89.80
2018-09-11T22:29:03.143Z,90.00
2018-09-11T22:31:31.664Z,90.10
2018-09-11T22:33:59.904Z,90.10
2018-09-11T22:36:28.135Z,90.20
2018-09-11T22:38:56.351Z,90.30
2018-09-11T22:41:24.600Z,90.40
2018-09-11T22:43:53.291Z,90.40
2018-09-11T22:46:21.965Z,90.50
2018-09-11T22:48:50.171Z,90.60
2018-09-11T22:51:18.383Z,90.70
2018-09-11T22:53:46.763Z,90.70
2018-09-11T22:56:14.996Z,90.80
2018-09-11T22:58:43.199Z,90.70
2018-09-11T23:01:11.723Z,90.70
2018-09-11T23:03:39.956Z,90.70
2018-09-11T23:06:08.188Z,90.70
2018-09-11T23:08:36.527Z,90.70
2018-09-11T23:11:04.808Z,90.70
2018-09-11T23:13:33.004Z,90.80
2018-09-11T23:16:01.227Z,90.90
2018-09-11T23:18:30.302Z,91.00
2018-09-11T23:20:58.527Z,91.20
2018-09-11T23:23:26.851Z,91.20
2018-09-11T23:25:55.076Z,91.30
2018-09-11T23:28:23.362Z,91.50
2018-09-11T23:30:51.556Z,91.60
2018-09-11T23:33:19.776Z,91.70
2018-09-11T23:35:48.010Z,92.00
2018-09-11T23:38:16.202Z,92.40
2018-09-11T23:40:44.554Z,92.60
2018-09-11T23:43:12.771Z,92.80
2018-09-11T23:45:40.992Z,93.00
2018-09-11T23:48:09.200Z,93.20
2018-09-11T23:50:37.395Z,93.40
2018-09-11T23:53:05.840Z,93.60
2018-09-11T23:55:34.121Z,93.70
2018-09-11T23:58:02.382Z,93.70
